Fmt Gumuldur — 9HA2097 — position and weather

sailwx.info

Track history (hours):
 
Tides and Currents Weather Stations Pressure Air Temp Water Temp Dewpoint Dewpoint Depression Visibility Wind Speed Wind Dir Waves Ship Positions

Fmt Gumuldur

Last reported at 2018-Feb-19 22:09 UTC. Time now 2018-Feb-20 14:02 UTC.
Position N 48°28' W 006°09'.

Length 143 m; draft 8.7 m.

Type: Ship. MMSI: 249955000.

Date/timePositionNaut miles runAvg speedWind from/ knotsBaromVisibWave heightAir tempDewpointWater temp
2018-Feb-19 22:09N 48°28' W 006°09'713.4
2018-Feb-19 21:38N 48°34' W 006°04'313.2
2018-Feb-19 21:23N 48°36' W 006°02'712.7
2018-Feb-19 20:49N 48°43' W 005°56'1411.4
2018-Feb-19 19:36N 48°54' W 005°44'210.2
2018-Feb-19 19:25N 48°55' W 005°41'3910.1
2018-Feb-19 15:32N 49°16' W 004°51'1712.0
2018-Feb-19 14:04N 49°25' W 004°28'3812.6
2018-Feb-19 11:03N 49°45' W 003°38'111.5
2018-Feb-19 11:00N 49°46' W 003°38'611.3
2018-Feb-19 10:30N 49°50' W 003°31'510.9
2018-Feb-19 10:01N 49°53' W 003°26'5 9.7
2018-Feb-19 09:30N 49°56' W 003°19'5 9.6
2018-Feb-19 09:00N 49°57' W 003°12'5 9.6
2018-Feb-19 08:30N 49°58' W 003°05'510.0
2018-Feb-19 08:00N 49°59' W 002°57'510.5
2018-Feb-19 07:30N 50°01' W 002°49'611.1
2018-Feb-19 07:00N 50°02' W 002°41'611.9
2018-Feb-19 06:29N 50°04' W 002°32'2113.9
2018-Feb-19 05:00N 50°10' W 002°01'815.6
2018-Feb-19 04:30N 50°12' W 001°49'816.0
2018-Feb-19 04:00N 50°14' W 001°37'815.9
2018-Feb-19 03:30N 50°16' W 001°25'3713.9
2018-Feb-19 00:51N 50°25' W 000°29'411.7
2018-Feb-19 00:30N 50°26' W 000°23'511.2
2018-Feb-19 00:00N 50°28' W 000°15'510.6
2018-Feb-18 23:30N 50°29' W 000°07'510.0
2018-Feb-18 23:00N 50°31' E 000°01'5 9.8
2018-Feb-18 22:30N 50°32' E 000°08'510.0
2018-Feb-18 22:00N 50°34' E 000°16'510.4
2018-Feb-18 21:30N 50°35' E 000°23'611.3
2018-Feb-18 21:00N 50°37' E 000°32'612.3
2018-Feb-18 20:30N 50°41' E 000°40'713.2
2018-Feb-18 20:00N 50°44' E 000°48'713.9
2018-Feb-18 19:30N 50°48' E 000°57'714.0
2018-Feb-18 19:00N 50°53' E 001°06'713.9
2018-Feb-18 18:30N 50°58' E 001°14'713.6
2018-Feb-18 18:00N 51°02' E 001°22'612.8
2018-Feb-18 17:30N 51°06' E 001°30'611.5
2018-Feb-18 17:00N 51°10' E 001°37'610.9
2018-Feb-18 16:30N 51°13' E 001°44'510.7
2018-Feb-18 16:00N 51°18' E 001°48'510.2
2018-Feb-18 15:30N 51°23' E 001°51'510.1
2018-Feb-18 15:00N 51°27' E 001°54'510.2
2018-Feb-18 14:30N 51°31' E 001°60'610.8
2018-Feb-18 14:00N 51°35' E 002°06'611.5
2018-Feb-18 13:30N 51°39' E 002°12'911.8
2018-Feb-18 12:46N 51°45' E 002°22'412.7
2018-Feb-18 12:28N 51°48' E 002°26'23411.9
2018-Feb-17 16:47N 55°11' E 005°43'412.2
2018-Feb-17 16:26N 55°15' E 005°47'512.2
2018-Feb-17 15:59N 55°19' E 005°52'612.2
2018-Feb-17 15:29N 55°24' E 005°58'612.2
2018-Feb-17 14:57N 55°30' E 006°05'19711.2
2018-Feb-16 21:20N 57°49' E 010°18'411.0
2018-Feb-16 21:00N 57°49' E 010°25'611.0
2018-Feb-16 20:30N 57°49' E 010°35'510.2
2018-Feb-16 20:01N 57°49' E 010°45'4 7.9
2018-Feb-16 19:31N 57°46' E 010°50'510.9
2018-Feb-16 19:00N 57°43' E 010°42'2 4.8
2018-Feb-16 18:30N 57°41' E 010°38'0 0.1
2018-Feb-16 17:58N 57°41' E 010°38'0 0.0
2018-Feb-16 17:28N 57°41' E 010°38'0 0.0
2018-Feb-16 16:52N 57°41' E 010°38'0 0.1
2018-Feb-16 16:30N 57°41' E 010°38'2 3.3
2018-Feb-16 16:01N 57°41' E 010°41'510.5
2018-Feb-16 15:30N 57°43' E 010°50'5 9.3
2018-Feb-16 15:00N 57°43' E 010°59'3 6.2
2018-Feb-16 14:30N 57°41' E 011°04'4 7.9
2018-Feb-16 14:00N 57°38' E 011°09'510.4
2018-Feb-16 13:30N 57°34' E 011°14'611.0
2018-Feb-16 13:00N 57°30' E 011°22'510.8
2018-Feb-16 12:30N 57°25' E 011°27'510.8
2018-Feb-16 12:00N 57°20' E 011°30'510.2
2018-Feb-16 11:30N 57°15' E 011°34'510.5
2018-Feb-16 11:00N 57°11' E 011°37'611.1
2018-Feb-16 10:30N 57°05' E 011°41'106 9.6
2018-Feb-15 23:29N 55°21' E 011°02'510.8
2018-Feb-15 23:00N 55°16' E 011°04'5 9.1
2018-Feb-15 22:30N 55°12' E 011°06'4 8.5
2018-Feb-15 22:00N 55°08' E 011°03'510.0
2018-Feb-15 21:30N 55°03' E 011°02'510.5
2018-Feb-15 21:00N 54°58' E 010°59'4 8.6
2018-Feb-15 20:30N 54°54' E 010°54'5 9.3
2018-Feb-15 20:00N 54°50' E 010°52'5 9.3
2018-Feb-15 19:31N 54°45' E 010°53'5 9.6
2018-Feb-15 19:00N 54°41' E 010°56'611.5
2018-Feb-15 18:30N 54°38' E 011°05'612.2
2018-Feb-15 18:00N 54°35' E 011°14'612.5
2018-Feb-15 17:30N 54°32' E 011°24'611.9
2018-Feb-15 17:00N 54°30' E 011°33'611.9
2018-Feb-15 16:28N 54°27' E 011°43'612.3
2018-Feb-15 16:00N 54°26' E 011°53'612.2
2018-Feb-15 15:30N 54°27' E 012°04'510.4
2018-Feb-15 15:00N 54°29' E 012°11'7810.2
2018-Feb-15 07:24N 54°38' E 014°24'612.7
2018-Feb-15 06:58N 54°39' E 014°34'812.6
2018-Feb-15 06:18N 54°41' E 014°48'412.4
2018-Feb-15 06:00N 54°41' E 014°54'712.3
2018-Feb-15 05:26N 54°42' E 015°06'512.3
2018-Feb-15 05:00N 54°43' E 015°15'10212.5
2018-Feb-14 20:51N 55°01' E 018°09'512.6
2018-Feb-14 20:26N 55°01' E 018°18'612.6
2018-Feb-14 20:00N 55°01' E 018°28'612.5
2018-Feb-14 19:29N 54°59' E 018°38'612.5
2018-Feb-14 18:58N 54°57' E 018°49'612.4
2018-Feb-14 18:30N 54°55' E 018°58'612.5
2018-Feb-14 18:00N 54°52' E 019°08'612.7
2018-Feb-14 17:30N 54°49' E 019°17'612.7
2018-Feb-14 17:00N 54°47' E 019°27'612.5
2018-Feb-14 16:30N 54°44' E 019°38'  
2018-Feb-10 18:54N 54°41' E 020°13'0 0.0
2018-Feb-10 18:30N 54°41' E 020°13'0 0.0
2018-Feb-10 18:00N 54°41' E 020°13'0 0.0
2018-Feb-10 17:30N 54°41' E 020°13'0 0.0
2018-Feb-10 15:53N 54°41' E 020°13'0 0.0
2018-Feb-10 15:30N 54°41' E 020°13'0 0.1
2018-Feb-10 14:42N 54°41' E 020°13'0 0.0
2018-Feb-10 14:29N 54°41' E 020°13'0 0.0
2018-Feb-10 13:26N 54°41' E 020°13'0 0.0
2018-Feb-10 12:52N 54°41' E 020°13'0 0.0
2018-Feb-10 12:14N 54°41' E 020°13'0 0.0
2018-Feb-10 12:00N 54°41' E 020°13'  
Track history (hours):
 
Tides and Currents Weather Stations Pressure Air Temp Water Temp Dewpoint Dewpoint Depression Visibility Wind Speed Wind Dir Waves Ship Positions

Fmt Gumuldur

Last reported at 2018-Feb-19 22:09 UTC. Time now 2018-Feb-20 14:02 UTC.
Position N 48°28' W 006°09'.

Length 143 m; draft 8.7 m.

Type: Ship. MMSI: 249955000.

Date/timePositionNaut miles runAvg speedWind from/ knotsBaromVisibWave heightAir tempDewpointWater temp
2018-Feb-19 22:09N 48°28' W 006°09'713.4
2018-Feb-19 21:38N 48°34' W 006°04'313.2
2018-Feb-19 21:23N 48°36' W 006°02'712.7
2018-Feb-19 20:49N 48°43' W 005°56'1411.4
2018-Feb-19 19:36N 48°54' W 005°44'210.2
2018-Feb-19 19:25N 48°55' W 005°41'3910.1
2018-Feb-19 15:32N 49°16' W 004°51'1712.0
2018-Feb-19 14:04N 49°25' W 004°28'3812.6
2018-Feb-19 11:03N 49°45' W 003°38'111.5
2018-Feb-19 11:00N 49°46' W 003°38'611.3
2018-Feb-19 10:30N 49°50' W 003°31'510.9
2018-Feb-19 10:01N 49°53' W 003°26'5 9.7
2018-Feb-19 09:30N 49°56' W 003°19'5 9.6
2018-Feb-19 09:00N 49°57' W 003°12'5 9.6
2018-Feb-19 08:30N 49°58' W 003°05'510.0
2018-Feb-19 08:00N 49°59' W 002°57'510.5
2018-Feb-19 07:30N 50°01' W 002°49'611.1
2018-Feb-19 07:00N 50°02' W 002°41'611.9
2018-Feb-19 06:29N 50°04' W 002°32'2113.9
2018-Feb-19 05:00N 50°10' W 002°01'815.6
2018-Feb-19 04:30N 50°12' W 001°49'816.0
2018-Feb-19 04:00N 50°14' W 001°37'815.9
2018-Feb-19 03:30N 50°16' W 001°25'3713.9
2018-Feb-19 00:51N 50°25' W 000°29'411.7
2018-Feb-19 00:30N 50°26' W 000°23'511.2
2018-Feb-19 00:00N 50°28' W 000°15'510.6
2018-Feb-18 23:30N 50°29' W 000°07'510.0
2018-Feb-18 23:00N 50°31' E 000°01'5 9.8
2018-Feb-18 22:30N 50°32' E 000°08'510.0
2018-Feb-18 22:00N 50°34' E 000°16'510.4
2018-Feb-18 21:30N 50°35' E 000°23'611.3
2018-Feb-18 21:00N 50°37' E 000°32'612.3
2018-Feb-18 20:30N 50°41' E 000°40'713.2
2018-Feb-18 20:00N 50°44' E 000°48'713.9
2018-Feb-18 19:30N 50°48' E 000°57'714.0
2018-Feb-18 19:00N 50°53' E 001°06'713.9
2018-Feb-18 18:30N 50°58' E 001°14'713.6
2018-Feb-18 18:00N 51°02' E 001°22'612.8
2018-Feb-18 17:30N 51°06' E 001°30'611.5
2018-Feb-18 17:00N 51°10' E 001°37'610.9
2018-Feb-18 16:30N 51°13' E 001°44'510.7
2018-Feb-18 16:00N 51°18' E 001°48'510.2
2018-Feb-18 15:30N 51°23' E 001°51'510.1
2018-Feb-18 15:00N 51°27' E 001°54'510.2
2018-Feb-18 14:30N 51°31' E 001°60'610.8
2018-Feb-18 14:00N 51°35' E 002°06'611.5
2018-Feb-18 13:30N 51°39' E 002°12'911.8
2018-Feb-18 12:46N 51°45' E 002°22'412.7
2018-Feb-18 12:28N 51°48' E 002°26'23411.9
2018-Feb-17 16:47N 55°11' E 005°43'412.2
2018-Feb-17 16:26N 55°15' E 005°47'512.2
2018-Feb-17 15:59N 55°19' E 005°52'612.2
2018-Feb-17 15:29N 55°24' E 005°58'612.2
2018-Feb-17 14:57N 55°30' E 006°05'19711.2
2018-Feb-16 21:20N 57°49' E 010°18'411.0
2018-Feb-16 21:00N 57°49' E 010°25'611.0
2018-Feb-16 20:30N 57°49' E 010°35'510.2
2018-Feb-16 20:01N 57°49' E 010°45'4 7.9
2018-Feb-16 19:31N 57°46' E 010°50'510.9
2018-Feb-16 19:00N 57°43' E 010°42'2 4.8
2018-Feb-16 18:30N 57°41' E 010°38'0 0.1
2018-Feb-16 17:58N 57°41' E 010°38'0 0.0
2018-Feb-16 17:28N 57°41' E 010°38'0 0.0
2018-Feb-16 16:52N 57°41' E 010°38'0 0.1
2018-Feb-16 16:30N 57°41' E 010°38'2 3.3
2018-Feb-16 16:01N 57°41' E 010°41'510.5
2018-Feb-16 15:30N 57°43' E 010°50'5 9.3
2018-Feb-16 15:00N 57°43' E 010°59'3 6.2
2018-Feb-16 14:30N 57°41' E 011°04'4 7.9
2018-Feb-16 14:00N 57°38' E 011°09'510.4
2018-Feb-16 13:30N 57°34' E 011°14'611.0
2018-Feb-16 13:00N 57°30' E 011°22'510.8
2018-Feb-16 12:30N 57°25' E 011°27'510.8
2018-Feb-16 12:00N 57°20' E 011°30'510.2
2018-Feb-16 11:30N 57°15' E 011°34'510.5
2018-Feb-16 11:00N 57°11' E 011°37'611.1
2018-Feb-16 10:30N 57°05' E 011°41'106 9.6
2018-Feb-15 23:29N 55°21' E 011°02'510.8
2018-Feb-15 23:00N 55°16' E 011°04'5 9.1
2018-Feb-15 22:30N 55°12' E 011°06'4 8.5
2018-Feb-15 22:00N 55°08' E 011°03'510.0
2018-Feb-15 21:30N 55°03' E 011°02'510.5
2018-Feb-15 21:00N 54°58' E 010°59'4 8.6
2018-Feb-15 20:30N 54°54' E 010°54'5 9.3
2018-Feb-15 20:00N 54°50' E 010°52'5 9.3
2018-Feb-15 19:31N 54°45' E 010°53'5 9.6
2018-Feb-15 19:00N 54°41' E 010°56'611.5
2018-Feb-15 18:30N 54°38' E 011°05'612.2
2018-Feb-15 18:00N 54°35' E 011°14'612.5
2018-Feb-15 17:30N 54°32' E 011°24'611.9
2018-Feb-15 17:00N 54°30' E 011°33'611.9
2018-Feb-15 16:28N 54°27' E 011°43'612.3
2018-Feb-15 16:00N 54°26' E 011°53'612.2
2018-Feb-15 15:30N 54°27' E 012°04'510.4
2018-Feb-15 15:00N 54°29' E 012°11'7810.2
2018-Feb-15 07:24N 54°38' E 014°24'612.7
2018-Feb-15 06:58N 54°39' E 014°34'812.6
2018-Feb-15 06:18N 54°41' E 014°48'412.4
2018-Feb-15 06:00N 54°41' E 014°54'712.3
2018-Feb-15 05:26N 54°42' E 015°06'512.3
2018-Feb-15 05:00N 54°43' E 015°15'10212.5
2018-Feb-14 20:51N 55°01' E 018°09'512.6
2018-Feb-14 20:26N 55°01' E 018°18'612.6
2018-Feb-14 20:00N 55°01' E 018°28'612.5
2018-Feb-14 19:29N 54°59' E 018°38'612.5
2018-Feb-14 18:58N 54°57' E 018°49'612.4
2018-Feb-14 18:30N 54°55' E 018°58'612.5
2018-Feb-14 18:00N 54°52' E 019°08'612.7
2018-Feb-14 17:30N 54°49' E 019°17'612.7
2018-Feb-14 17:00N 54°47' E 019°27'612.5
2018-Feb-14 16:30N 54°44' E 019°38'  
2018-Feb-10 18:54N 54°41' E 020°13'0 0.0
2018-Feb-10 18:30N 54°41' E 020°13'0 0.0
2018-Feb-10 18:00N 54°41' E 020°13'0 0.0
2018-Feb-10 17:30N 54°41' E 020°13'0 0.0
2018-Feb-10 15:53N 54°41' E 020°13'0 0.0
2018-Feb-10 15:30N 54°41' E 020°13'0 0.1
2018-Feb-10 14:42N 54°41' E 020°13'0 0.0
2018-Feb-10 14:29N 54°41' E 020°13'0 0.0
2018-Feb-10 13:26N 54°41' E 020°13'0 0.0
2018-Feb-10 12:52N 54°41' E 020°13'0 0.0
2018-Feb-10 12:14N 54°41' E 020°13'0 0.0
2018-Feb-10 12:00N 54°41' E 020°13'  

Dump ship's entire track history